Time;durP1;ratioP1;P1;durP2;ratioP2;P2;SDS_P1;SDS_P2;PMS_P1;PMS_P2;Temp;Humidity;BMP_temperature;BMP_pressure;BME280_temperature;BME280_humidity;BME280_pressure;Samples;Min_cycle;Max_cycle;Signal;HPM_P1;HPM_P2
2023/08/13 00:01:12;;;;;;;2.78;1.10;;;;;;;;;;5013199;28;20129;-64
2023/08/13 00:03:38;;;;;;;1.75;0.68;;;;;;;;;;5012408;28;20507;-64
2023/08/13 00:06:04;;;;;;;1.20;0.80;;;;;;;;;;5016870;28;20046;-63
2023/08/13 00:08:30;;;;;;;1.42;1.00;;;;;;;;;;5022056;28;20043;-63
2023/08/13 00:10:56;;;;;;;1.98;0.80;;;;;;;;;;5021709;28;20045;-63
2023/08/13 00:13:22;;;;;;;1.20;0.85;;;;;;;;;;5022343;28;20060;-64
2023/08/13 00:15:49;;;;;;;1.45;0.90;;;;;;;;;;5015333;28;20511;-64
2023/08/13 00:18:15;;;;;;;1.20;0.90;;;;;;;;;;5020917;28;20084;-64
2023/08/13 00:20:41;;;;;;;2.33;0.95;;;;;;;;;;5022541;28;20041;-64
2023/08/13 00:23:07;;;;;;;2.20;0.77;;;;;;;;;;5022102;28;20716;-64
2023/08/13 00:25:33;;;;;;;1.92;0.90;;;;;;;;;;5019312;28;20034;-64
2023/08/13 00:27:59;;;;;;;1.40;1.02;;;;;;;;;;5019158;28;20049;-63
2023/08/13 00:30:25;;;;;;;1.38;0.88;;;;;;;;;;5019827;28;20053;-63
2023/08/13 00:32:51;;;;;;;1.02;0.70;;;;;;;;;;5020887;28;20148;-64
2023/08/13 00:35:17;;;;;;;1.42;0.75;;;;;;;;;;5022332;28;20148;-63
2023/08/13 00:37:43;;;;;;;2.25;1.00;;;;;;;;;;5019090;28;20100;-63
2023/08/13 00:40:09;;;;;;;1.88;1.00;;;;;;;;;;5018458;28;20046;-63
2023/08/13 00:42:35;;;;;;;2.33;0.88;;;;;;;;;;5019437;28;20042;-63
2023/08/13 00:45:01;;;;;;;1.13;0.63;;;;;;;;;;5020847;28;20045;-63
2023/08/13 00:47:27;;;;;;;1.83;0.95;;;;;;;;;;5022025;28;20052;-64
2023/08/13 00:49:53;;;;;;;1.65;0.98;;;;;;;;;;5022085;28;20049;-64
2023/08/13 00:52:19;;;;;;;1.85;0.60;;;;;;;;;;5021549;28;20040;-64
2023/08/13 00:54:45;;;;;;;1.63;0.65;;;;;;;;;;5021802;28;20494;-64
2023/08/13 00:57:12;;;;;;;1.83;0.70;;;;;;;;;;5018373;28;20519;-64
2023/08/13 00:59:38;;;;;;;2.75;1.00;;;;;;;;;;5018004;28;20069;-64
2023/08/13 01:02:04;;;;;;;1.88;0.80;;;;;;;;;;5020572;28;20050;-63
2023/08/13 01:04:30;;;;;;;1.23;0.60;;;;;;;;;;5021784;28;20041;-63
2023/08/13 01:06:59;;;;;;;1.27;0.70;;;;;;;;;;5020468;28;20069;-63
2023/08/13 01:09:37;;;;;;;1.10;0.60;;;;;;;;;;5018876;28;20050;-63
2023/08/13 01:12:05;;;;;;;1.70;0.60;;;;;;;;;;5017234;28;20049;-63
2023/08/13 01:14:47;;;;;;;1.80;0.90;;;;;;;;;;5021773;28;20049;-63
2023/08/13 01:17:15;;;;;;;1.13;0.80;;;;;;;;;;5018521;28;20049;-63
2023/08/13 01:19:41;;;;;;;1.25;0.80;;;;;;;;;;5014635;28;20041;-63
2023/08/13 01:22:07;;;;;;;0.85;0.55;;;;;;;;;;5015073;28;20057;-63
2023/08/13 01:24:33;;;;;;;0.70;0.50;;;;;;;;;;5018640;28;20045;-63
2023/08/13 01:27:08;;;;;;;1.20;0.88;;;;;;;;;;5018310;28;20049;-63
2023/08/13 01:29:41;;;;;;;0.68;0.50;;;;;;;;;;5015418;28;20038;-63
2023/08/13 01:32:10;;;;;;;0.85;0.57;;;;;;;;;;5015249;28;20044;-63
2023/08/13 01:34:36;;;;;;;1.63;0.55;;;;;;;;;;5017083;28;20049;-63
2023/08/13 01:37:03;;;;;;;2.50;0.88;;;;;;;;;;5018195;28;20512;-63
2023/08/13 01:39:29;;;;;;;1.48;0.85;;;;;;;;;;5017844;28;20049;-64
2023/08/13 01:41:55;;;;;;;0.88;0.75;;;;;;;;;;5014655;28;20045;-64
2023/08/13 01:44:21;;;;;;;2.28;0.73;;;;;;;;;;5015039;28;20065;-63
2023/08/13 01:46:48;;;;;;;1.40;0.80;;;;;;;;;;5017761;28;20389;-63
2023/08/13 01:49:14;;;;;;;1.40;0.70;;;;;;;;;;5017667;28;20037;-63
2023/08/13 01:51:40;;;;;;;1.77;0.70;;;;;;;;;;5017352;28;20041;-63
2023/08/13 01:54:06;;;;;;;2.17;0.68;;;;;;;;;;5014688;28;20496;-63
2023/08/13 01:56:32;;;;;;;1.65;0.68;;;;;;;;;;5014556;28;20041;-63
2023/08/13 01:58:58;;;;;;;1.10;0.73;;;;;;;;;;5017301;28;20057;-63
2023/08/13 02:01:24;;;;;;;3.20;1.20;;;;;;;;;;5016241;28;20038;-63
2023/08/13 02:03:50;;;;;;;1.98;0.77;;;;;;;;;;5018240;28;20541;-63
2023/08/13 02:06:16;;;;;;;0.88;0.60;;;;;;;;;;5015622;28;20499;-64
2023/08/13 02:08:42;;;;;;;1.40;0.63;;;;;;;;;;5014385;28;20519;-63
2023/08/13 02:11:08;;;;;;;0.80;0.60;;;;;;;;;;5015875;28;20483;-63
2023/08/13 02:13:34;;;;;;;2.30;0.93;;;;;;;;;;5017368;28;20056;-63
2023/08/13 02:16:04;;;;;;;1.17;0.77;;;;;;;;;;5016932;28;20045;-63
2023/08/13 02:18:30;;;;;;;2.25;0.70;;;;;;;;;;5009507;28;20037;-63
2023/08/13 02:20:56;;;;;;;1.52;0.90;;;;;;;;;;5017220;28;20049;-63
2023/08/13 02:23:22;;;;;;;1.30;0.68;;;;;;;;;;5014457;28;20130;-63
2023/08/13 02:25:48;;;;;;;0.50;0.50;;;;;;;;;;5014621;28;20050;-63
2023/08/13 02:28:14;;;;;;;1.58;0.85;;;;;;;;;;5014305;28;20049;-63
2023/08/13 02:30:40;;;;;;;0.95;0.57;;;;;;;;;;5016401;28;20479;-63
2023/08/13 02:33:06;;;;;;;1.13;0.80;;;;;;;;;;5017143;28;20499;-63
2023/08/13 02:35:32;;;;;;;1.30;0.75;;;;;;;;;;5016214;28;20110;-63
2023/08/13 02:37:58;;;;;;;2.35;1.00;;;;;;;;;;5013875;28;20038;-63
2023/08/13 02:40:24;;;;;;;1.38;0.65;;;;;;;;;;5013945;28;20054;-63
2023/08/13 02:42:50;;;;;;;1.80;0.75;;;;;;;;;;5014526;28;20427;-63
2023/08/13 02:45:16;;;;;;;0.95;0.60;;;;;;;;;;5013813;28;20049;-63
2023/08/13 02:47:42;;;;;;;1.73;0.82;;;;;;;;;;5015181;28;20038;-63
2023/08/13 02:50:10;;;;;;;1.23;0.68;;;;;;;;;;5019510;28;20038;-64
2023/08/13 02:52:36;;;;;;;0.70;0.57;;;;;;;;;;5021141;28;20522;-63
2023/08/13 02:55:02;;;;;;;0.63;0.50;;;;;;;;;;5013415;28;20440;-63
2023/08/13 02:57:28;;;;;;;1.10;0.60;;;;;;;;;;5013744;28;20104;-63
2023/08/13 02:59:54;;;;;;;1.25;0.60;;;;;;;;;;5014676;28;20046;-63
2023/08/13 03:02:20;;;;;;;2.78;0.63;;;;;;;;;;5016582;28;20115;-64
2023/08/13 03:04:46;;;;;;;1.42;0.60;;;;;;;;;;5016763;28;20540;-64
2023/08/13 03:07:12;;;;;;;0.45;0.30;;;;;;;;;;5014128;28;20045;-64
2023/08/13 03:09:38;;;;;;;1.45;0.73;;;;;;;;;;5013493;28;20500;-64
2023/08/13 03:12:04;;;;;;;1.50;0.73;;;;;;;;;;5013643;28;20045;-63
2023/08/13 03:14:30;;;;;;;1.52;0.82;;;;;;;;;;5016981;28;20119;-63
2023/08/13 03:16:56;;;;;;;1.35;0.82;;;;;;;;;;5016820;28;20041;-63
2023/08/13 03:19:22;;;;;;;0.98;0.70;;;;;;;;;;5013591;28;20049;-63
2023/08/13 03:21:48;;;;;;;0.77;0.45;;;;;;;;;;5013978;28;20037;-63
2023/08/13 03:24:15;;;;;;;1.42;0.60;;;;;;;;;;5014226;28;20049;-63
2023/08/13 03:26:41;;;;;;;1.17;0.80;;;;;;;;;;5015670;28;20041;-63
2023/08/13 03:29:07;;;;;;;0.82;0.60;;;;;;;;;;5016054;28;20048;-64
2023/08/13 03:31:33;;;;;;;0.68;0.50;;;;;;;;;;5013941;28;20045;-64
2023/08/13 03:33:59;;;;;;;1.10;0.73;;;;;;;;;;5013271;28;20148;-63
2023/08/13 03:36:25;;;;;;;0.52;0.40;;;;;;;;;;5013893;28;20092;-63
2023/08/13 03:38:51;;;;;;;1.30;0.40;;;;;;;;;;5016667;28;20045;-63
2023/08/13 03:41:17;;;;;;;0.80;0.43;;;;;;;;;;5015345;28;20064;-63
2023/08/13 03:43:43;;;;;;;1.25;0.60;;;;;;;;;;5014135;28;20034;-63
2023/08/13 03:46:09;;;;;;;0.80;0.60;;;;;;;;;;5012388;28;20093;-63
2023/08/13 03:48:35;;;;;;;1.02;0.63;;;;;;;;;;5012133;28;20543;-63
2023/08/13 03:51:03;;;;;;;1.75;0.70;;;;;;;;;;5019927;28;20388;-64
2023/08/13 03:53:29;;;;;;;0.70;0.47;;;;;;;;;;5019661;28;20087;-63
2023/08/13 03:55:55;;;;;;;0.90;0.73;;;;;;;;;;5013804;28;20057;-63
2023/08/13 03:58:21;;;;;;;2.05;0.60;;;;;;;;;;5012941;28;20408;-63
2023/08/13 04:00:47;;;;;;;1.20;0.30;;;;;;;;;;5012654;28;20058;-63
2023/08/13 04:03:13;;;;;;;0.93;0.57;;;;;;;;;;5015838;28;20069;-63
2023/08/13 04:05:39;;;;;;;0.90;0.50;;;;;;;;;;5017843;28;20533;-63
2023/08/13 04:08:05;;;;;;;1.35;1.00;;;;;;;;;;5013761;28;20137;-63
2023/08/13 04:10:31;;;;;;;0.90;0.63;;;;;;;;;;5015937;28;20807;-63
2023/08/13 04:13:00;;;;;;;0.82;0.60;;;;;;;;;;5016094;28;20045;-63
2023/08/13 04:15:26;;;;;;;1.45;1.00;;;;;;;;;;5015604;28;20538;-64
2023/08/13 04:17:52;;;;;;;1.75;0.70;;;;;;;;;;5015876;28;20523;-64
2023/08/13 04:20:18;;;;;;;1.85;0.85;;;;;;;;;;5014027;28;20060;-64
2023/08/13 04:22:45;;;;;;;1.83;0.70;;;;;;;;;;4998783;28;20037;-64
2023/08/13 04:25:11;;;;;;;0.80;0.55;;;;;;;;;;5015153;28;20046;-64
2023/08/13 04:27:37;;;;;;;0.80;0.50;;;;;;;;;;5015385;28;20037;-64
2023/08/13 04:30:04;;;;;;;2.35;1.02;;;;;;;;;;5014576;28;20037;-63
2023/08/13 04:32:31;;;;;;;2.17;1.08;;;;;;;;;;5013910;28;20618;-63
2023/08/13 04:34:58;;;;;;;2.92;0.90;;;;;;;;;;5012471;28;20064;-63
2023/08/13 04:37:24;;;;;;;0.90;0.50;;;;;;;;;;5011686;28;20042;-63
2023/08/13 04:39:50;;;;;;;1.83;0.73;;;;;;;;;;5015829;28;20140;-63
2023/08/13 04:42:16;;;;;;;1.73;0.90;;;;;;;;;;5015462;28;20049;-63
2023/08/13 04:44:42;;;;;;;2.47;0.57;;;;;;;;;;5013124;28;20045;-63
2023/08/13 04:47:08;;;;;;;1.52;1.38;;;;;;;;;;5012035;28;20038;-63
2023/08/13 04:49:34;;;;;;;2.95;1.05;;;;;;;;;;5011934;28;20404;-63
2023/08/13 04:52:00;;;;;;;4.53;1.35;;;;;;;;;;5012770;28;20038;-63
2023/08/13 04:54:26;;;;;;;3.63;1.13;;;;;;;;;;5016003;28;20058;-63
2023/08/13 04:56:52;;;;;;;1.92;1.00;;;;;;;;;;5017302;28;20060;-63
2023/08/13 04:59:18;;;;;;;5.32;1.50;;;;;;;;;;5018538;28;20041;-63
2023/08/13 05:01:44;;;;;;;2.83;1.45;;;;;;;;;;5018781;28;20037;-63
2023/08/13 05:04:12;;;;;;;3.25;1.35;;;;;;;;;;5015356;28;20041;-63
2023/08/13 05:06:38;;;;;;;1.35;0.88;;;;;;;;;;5015622;28;20083;-63
2023/08/13 05:09:04;;;;;;;1.38;0.90;;;;;;;;;;5016806;28;20045;-63
2023/08/13 05:11:30;;;;;;;2.65;1.30;;;;;;;;;;5017811;28;20612;-63
2023/08/13 05:13:56;;;;;;;2.17;1.20;;;;;;;;;;5018645;28;20083;-63
2023/08/13 05:16:22;;;;;;;1.65;1.17;;;;;;;;;;5015233;28;20112;-63
2023/08/13 05:18:48;;;;;;;1.05;0.85;;;;;;;;;;5015170;28;20046;-63
2023/08/13 05:21:15;;;;;;;1.45;0.90;;;;;;;;;;5016879;28;20130;-63
2023/08/13 05:23:41;;;;;;;1.83;0.98;;;;;;;;;;5019320;28;20407;-63
2023/08/13 05:26:07;;;;;;;3.58;1.02;;;;;;;;;;5018172;28;20041;-63
2023/08/13 05:28:33;;;;;;;1.50;0.98;;;;;;;;;;5016184;28;20045;-63
2023/08/13 05:31:02;;;;;;;2.95;1.20;;;;;;;;;;5016222;28;20053;-63
2023/08/13 05:33:28;;;;;;;2.45;1.17;;;;;;;;;;5016346;28;20050;-63
2023/08/13 05:35:54;;;;;;;3.55;1.65;;;;;;;;;;5018298;28;20041;-63
2023/08/13 05:38:20;;;;;;;2.67;1.25;;;;;;;;;;5018998;28;20512;-64
2023/08/13 05:40:47;;;;;;;3.35;1.55;;;;;;;;;;5017576;28;20050;-64
2023/08/13 05:43:13;;;;;;;1.83;1.15;;;;;;;;;;5017863;28;20355;-64
2023/08/13 05:45:41;;;;;;;2.50;1.38;;;;;;;;;;5016983;28;20123;-63
2023/08/13 05:48:07;;;;;;;2.45;0.95;;;;;;;;;;5014436;28;20052;-63
2023/08/13 05:50:33;;;;;;;1.45;0.70;;;;;;;;;;5014898;28;20034;-63
2023/08/13 05:52:59;;;;;;;3.33;1.55;;;;;;;;;;5017637;28;20030;-63
2023/08/13 05:55:25;;;;;;;1.92;1.10;;;;;;;;;;5016860;28;20505;-63
2023/08/13 05:57:51;;;;;;;1.67;1.15;;;;;;;;;;5016498;28;20099;-63
2023/08/13 06:00:18;;;;;;;2.55;1.30;;;;;;;;;;5015058;28;20060;-63
2023/08/13 06:02:44;;;;;;;1.60;0.80;;;;;;;;;;5014768;28;20044;-63
2023/08/13 06:05:11;;;;;;;1.65;0.80;;;;;;;;;;5017042;28;20447;-63
2023/08/13 06:07:37;;;;;;;1.10;0.90;;;;;;;;;;5017288;28;20045;-63
2023/08/13 06:10:04;;;;;;;2.42;0.95;;;;;;;;;;5016207;28;20056;-63
2023/08/13 06:12:30;;;;;;;1.25;0.80;;;;;;;;;;5014845;28;20096;-63
2023/08/13 06:14:56;;;;;;;2.03;1.20;;;;;;;;;;5014082;28;20038;-64
2023/08/13 06:17:22;;;;;;;2.42;0.82;;;;;;;;;;5017572;28;20652;-64
2023/08/13 06:19:48;;;;;;;3.00;0.98;;;;;;;;;;5018267;28;20053;-64
2023/08/13 06:22:14;;;;;;;3.35;1.17;;;;;;;;;;5015477;28;20041;-64
2023/08/13 06:24:40;;;;;;;1.45;1.23;;;;;;;;;;5014412;28;20443;-64
2023/08/13 06:27:06;;;;;;;1.92;1.10;;;;;;;;;;5014170;28;20053;-64
2023/08/13 06:29:32;;;;;;;0.70;0.70;;;;;;;;;;5016240;28;20088;-63
2023/08/13 06:31:58;;;;;;;2.72;0.90;;;;;;;;;;5017163;28;20103;-63
2023/08/13 06:34:25;;;;;;;5.18;1.90;;;;;;;;;;5015931;28;20044;-63
2023/08/13 06:36:53;;;;;;;5.95;1.85;;;;;;;;;;5014225;28;20041;-63
2023/08/13 06:39:21;;;;;;;8.07;2.75;;;;;;;;;;5014471;28;20362;-63
2023/08/13 06:41:47;;;;;;;5.93;2.05;;;;;;;;;;5017247;28;20041;-63
2023/08/13 06:44:20;;;;;;;4.80;2.40;;;;;;;;;;5016163;28;20045;-63
2023/08/13 06:46:49;;;;;;;2.78;1.67;;;;;;;;;;5014465;28;20131;-63
2023/08/13 06:49:15;;;;;;;2.03;1.00;;;;;;;;;;5013462;28;20168;-63
2023/08/13 06:51:41;;;;;;;4.82;2.17;;;;;;;;;;5013919;28;20042;-64
2023/08/13 06:54:07;;;;;;;2.90;1.85;;;;;;;;;;5016398;28;20064;-64
2023/08/13 06:56:35;;;;;;;5.40;2.50;;;;;;;;;;5016826;28;20038;-64
2023/08/13 06:59:02;;;;;;;4.97;2.03;;;;;;;;;;5013498;28;20060;-64
2023/08/13 07:01:28;;;;;;;5.45;2.67;;;;;;;;;;5014064;28;20534;-63
2023/08/13 07:03:54;;;;;;;3.40;1.73;;;;;;;;;;5013791;28;20360;-63
2023/08/13 07:06:21;;;;;;;3.58;1.92;;;;;;;;;;5016854;28;20125;-64
2023/08/13 07:08:47;;;;;;;4.40;2.30;;;;;;;;;;5016847;28;20095;-64
2023/08/13 07:11:13;;;;;;;3.30;2.20;;;;;;;;;;5013066;28;20411;-64
2023/08/13 07:13:39;;;;;;;5.65;2.33;;;;;;;;;;5013606;28;20053;-64
2023/08/13 07:16:09;;;;;;;18.83;3.83;;;;;;;;;;5012754;28;20042;-64
2023/08/13 07:18:36;;;;;;;8.02;2.63;;;;;;;;;;5015902;28;20491;-63
2023/08/13 07:21:04;;;;;;;4.45;2.05;;;;;;;;;;5016171;28;20064;-63
2023/08/13 07:23:30;;;;;;;5.88;2.20;;;;;;;;;;5013203;28;20081;-63
2023/08/13 07:25:56;;;;;;;5.35;2.35;;;;;;;;;;5012687;28;20050;-63
2023/08/13 07:28:22;;;;;;;4.50;1.92;;;;;;;;;;5014200;28;20104;-63
2023/08/13 07:30:49;;;;;;;4.38;1.80;;;;;;;;;;5016504;28;20038;-63
2023/08/13 07:33:15;;;;;;;5.28;3.20;;;;;;;;;;5015540;28;20049;-63
2023/08/13 07:35:41;;;;;;;3.67;2.17;;;;;;;;;;5013585;28;20107;-63
2023/08/13 07:38:07;;;;;;;6.15;2.13;;;;;;;;;;5012791;28;20041;-63
2023/08/13 07:40:34;;;;;;;7.70;2.15;;;;;;;;;;5020483;28;20079;-63
2023/08/13 07:43:00;;;;;;;6.90;2.58;;;;;;;;;;5015931;28;20521;-63
2023/08/13 07:45:26;;;;;;;6.18;3.05;;;;;;;;;;5016351;28;20410;-63
2023/08/13 07:47:53;;;;;;;8.68;2.22;;;;;;;;;;5012617;28;20045;-64
2023/08/13 07:50:19;;;;;;;6.95;2.33;;;;;;;;;;5013094;28;20075;-64
2023/08/13 07:52:45;;;;;;;4.55;2.30;;;;;;;;;;5013670;28;20038;-64
2023/08/13 07:55:11;;;;;;;6.13;2.53;;;;;;;;;;5014934;28;20059;-64
2023/08/13 07:57:37;;;;;;;4.47;1.80;;;;;;;;;;5016136;28;20037;-64
2023/08/13 08:00:07;;;;;;;5.53;2.70;;;;;;;;;;5012893;28;20469;-64
2023/08/13 08:02:33;;;;;;;4.00;2.15;;;;;;;;;;5013230;28;20052;-64
2023/08/13 08:04:59;;;;;;;11.82;3.05;;;;;;;;;;5012753;28;20077;-63
2023/08/13 08:07:27;;;;;;;4.97;2.50;;;;;;;;;;5015383;28;20081;-63
2023/08/13 08:09:53;;;;;;;5.38;1.98;;;;;;;;;;5015840;28;20049;-63
2023/08/13 08:12:19;;;;;;;4.03;1.90;;;;;;;;;;5013029;28;20048;-63
2023/08/13 08:14:45;;;;;;;8.45;2.40;;;;;;;;;;5012011;28;20069;-63
2023/08/13 08:17:11;;;;;;;4.43;2.45;;;;;;;;;;5013612;28;20080;-63
2023/08/13 08:19:37;;;;;;;5.97;2.40;;;;;;;;;;5015588;28;20041;-63
2023/08/13 08:22:03;;;;;;;4.78;2.30;;;;;;;;;;5015013;28;20163;-63
2023/08/13 08:24:29;;;;;;;2.88;1.98;;;;;;;;;;5013187;28;20448;-63
2023/08/13 08:26:55;;;;;;;3.88;1.70;;;;;;;;;;5013697;28;20148;-63
2023/08/13 08:29:21;;;;;;;4.13;2.08;;;;;;;;;;5016724;28;20784;-63
2023/08/13 08:31:47;;;;;;;3.88;1.75;;;;;;;;;;5020289;28;20041;-63
2023/08/13 08:34:13;;;;;;;4.07;1.95;;;;;;;;;;5019739;28;20033;-63
2023/08/13 08:36:39;;;;;;;3.45;1.65;;;;;;;;;;5016920;28;20438;-63
2023/08/13 08:39:05;;;;;;;6.90;2.38;;;;;;;;;;5015920;28;20538;-63
2023/08/13 08:41:32;;;;;;;6.07;2.00;;;;;;;;;;5016823;28;20077;-64
2023/08/13 08:44:01;;;;;;;5.82;2.42;;;;;;;;;;5018388;28;20074;-64
2023/08/13 08:46:28;;;;;;;6.45;2.08;;;;;;;;;;5019431;28;20037;-64
2023/08/13 08:48:54;;;;;;;8.15;2.88;;;;;;;;;;5016031;28;20404;-64
2023/08/13 08:51:21;;;;;;;5.80;2.35;;;;;;;;;;5015519;28;20046;-64
2023/08/13 08:53:49;;;;;;;4.35;2.03;;;;;;;;;;5017093;28;20046;-64
2023/08/13 08:56:15;;;;;;;5.78;1.70;;;;;;;;;;5018132;28;20065;-64
2023/08/13 08:58:41;;;;;;;4.10;1.48;;;;;;;;;;5018761;28;20037;-64
2023/08/13 09:01:07;;;;;;;3.78;1.40;;;;;;;;;;5015928;28;20049;-64
2023/08/13 09:03:33;;;;;;;5.35;1.65;;;;;;;;;;5015305;28;20073;-64
2023/08/13 09:05:59;;;;;;;3.67;1.65;;;;;;;;;;5016962;28;20081;-64
2023/08/13 09:08:26;;;;;;;1.88;1.40;;;;;;;;;;5018890;28;20152;-64
2023/08/13 09:10:53;;;;;;;6.38;2.08;;;;;;;;;;5018516;28;20050;-64
2023/08/13 09:13:19;;;;;;;5.05;2.05;;;;;;;;;;5015674;28;20080;-64
2023/08/13 09:15:48;;;;;;;3.40;1.60;;;;;;;;;;5015005;28;20550;-64
2023/08/13 09:18:14;;;;;;;2.80;1.23;;;;;;;;;;5016228;28;20038;-64
2023/08/13 09:20:49;;;;;;;2.63;1.55;;;;;;;;;;5018355;28;20592;-64
2023/08/13 09:23:21;;;;;;;4.78;1.60;;;;;;;;;;5017529;28;20092;-64
2023/08/13 09:25:47;;;;;;;;;;;;;;;;;;5015556;28;20546;-64
2023/08/13 09:28:14;;;;;;;2.25;1.30;;;;;;;;;;5015508;28;19925;-64
2023/08/13 09:30:40;;;;;;;5.18;1.50;;;;;;;;;;5018830;28;20033;-64
2023/08/13 09:33:06;;;;;;;3.45;1.40;;;;;;;;;;5017857;28;20042;-64
2023/08/13 09:35:32;;;;;;;4.97;1.33;;;;;;;;;;5016953;28;20771;-64
2023/08/13 09:37:58;;;;;;;4.20;1.00;;;;;;;;;;5014671;28;20153;-64
2023/08/13 09:40:24;;;;;;;4.43;1.30;;;;;;;;;;5013787;28;20140;-64
2023/08/13 09:42:53;;;;;;;1.85;1.10;;;;;;;;;;5018623;28;20073;-64
2023/08/13 09:45:20;;;;;;;2.58;1.10;;;;;;;;;;5017260;28;20048;-64
2023/08/13 09:47:49;;;;;;;2.13;1.10;;;;;;;;;;5009083;28;20046;-64
2023/08/13 09:50:17;;;;;;;3.90;1.27;;;;;;;;;;5018085;28;20087;-63
2023/08/13 09:52:44;;;;;;;2.03;1.10;;;;;;;;;;5016816;28;20042;-63
2023/08/13 09:55:14;;;;;;;1.83;0.85;;;;;;;;;;5014959;28;20053;-63
2023/08/13 09:57:43;;;;;;;2.78;1.20;;;;;;;;;;5015077;28;20038;-64
2023/08/13 10:00:11;;;;;;;1.67;0.85;;;;;;;;;;5023826;28;20041;-64
2023/08/13 10:02:38;;;;;;;3.67;1.45;;;;;;;;;;5018043;28;20041;-64
2023/08/13 10:05:05;;;;;;;2.97;1.20;;;;;;;;;;5015984;28;20038;-64
2023/08/13 10:07:31;;;;;;;3.05;1.02;;;;;;;;;;5014612;28;20095;-64
2023/08/13 10:09:58;;;;;;;3.30;0.85;;;;;;;;;;5014927;28;20080;-64
2023/08/13 10:12:24;;;;;;;3.20;1.00;;;;;;;;;;5014767;28;20040;-64
2023/08/13 10:14:50;;;;;;;4.82;1.17;;;;;;;;;;5014522;28;20082;-64
2023/08/13 10:17:22;;;;;;;5.95;1.48;;;;;;;;;;5015856;28;20037;-64
2023/08/13 10:19:49;;;;;;;2.50;1.25;;;;;;;;;;5017830;28;20049;-64
2023/08/13 10:22:23;;;;;;;5.05;1.60;;;;;;;;;;5015860;28;20096;-64
2023/08/13 10:24:49;;;;;;;4.43;1.48;;;;;;;;;;5013186;28;20052;-64
2023/08/13 10:27:15;;;;;;;2.13;1.20;;;;;;;;;;5013112;28;20899;-64
2023/08/13 10:29:42;;;;;;;2.78;1.00;;;;;;;;;;5015426;28;20140;-64
2023/08/13 10:32:15;;;;;;;2.85;1.42;;;;;;;;;;5015668;28;20053;-64
2023/08/13 10:34:43;;;;;;;2.70;0.82;;;;;;;;;;5014068;28;20380;-64
2023/08/13 10:37:16;;;;;;;3.67;1.27;;;;;;;;;;5014069;28;20527;-64
2023/08/13 10:39:43;;;;;;;3.08;1.48;;;;;;;;;;5016038;28;20042;-64
2023/08/13 10:42:32;;;;;;;2.28;1.00;;;;;;;;;;5016240;28;20077;-64
2023/08/13 10:45:02;;;;;;;5.60;1.75;;;;;;;;;;5017753;28;20050;-64
2023/08/13 10:47:38;;;;;;;3.58;1.17;;;;;;;;;;5017060;28;20046;-64
2023/08/13 10:50:08;;;;;;;2.42;1.15;;;;;;;;;;5013028;28;20042;-64
2023/08/13 10:52:34;;;;;;;2.35;1.30;;;;;;;;;;5013630;28;20508;-64
2023/08/13 10:55:00;;;;;;;5.50;1.35;;;;;;;;;;5015937;28;20508;-63
2023/08/13 10:57:28;;;;;;;3.08;1.48;;;;;;;;;;5016362;28;20056;-63
2023/08/13 10:59:55;;;;;;;3.30;1.10;;;;;;;;;;5015413;28;20048;-63
2023/08/13 11:02:21;;;;;;;4.22;1.33;;;;;;;;;;5013925;28;20309;-63
2023/08/13 11:04:47;;;;;;;3.72;1.20;;;;;;;;;;5013254;28;20085;-63
2023/08/13 11:07:14;;;;;;;1.10;0.70;;;;;;;;;;5016312;28;20051;-63
2023/08/13 11:09:42;;;;;;;1.50;0.80;;;;;;;;;;5017043;28;20064;-63
2023/08/13 11:12:10;;;;;;;1.65;0.85;;;;;;;;;;5014568;28;20045;-64
2023/08/13 11:14:37;;;;;;;2.35;1.20;;;;;;;;;;5013420;28;20407;-64
2023/08/13 11:17:04;;;;;;;2.25;1.00;;;;;;;;;;5012489;28;20164;-64
2023/08/13 11:19:30;;;;;;;2.72;0.90;;;;;;;;;;5016415;28;20102;-64
2023/08/13 11:21:56;;;;;;;1.63;0.90;;;;;;;;;;5016112;28;20434;-64
2023/08/13 11:24:23;;;;;;;2.10;1.05;;;;;;;;;;5013092;28;20048;-64
2023/08/13 11:26:49;;;;;;;2.55;1.10;;;;;;;;;;5013703;28;20049;-64
2023/08/13 11:29:19;;;;;;;2.17;0.95;;;;;;;;;;5013103;28;20034;-64
2023/08/13 11:31:45;;;;;;;2.78;0.82;;;;;;;;;;5012625;28;20403;-64
2023/08/13 11:34:11;;;;;;;2.38;0.90;;;;;;;;;;5012577;28;20104;-64
2023/08/13 11:36:37;;;;;;;1.80;0.95;;;;;;;;;;5015027;28;20061;-64
2023/08/13 11:39:03;;;;;;;2.35;1.08;;;;;;;;;;5015101;28;20514;-64
2023/08/13 11:41:29;;;;;;;1.25;0.77;;;;;;;;;;5016405;28;20045;-64
2023/08/13 11:43:55;;;;;;;3.17;1.15;;;;;;;;;;5013420;28;20488;-64
2023/08/13 11:46:22;;;;;;;2.10;1.00;;;;;;;;;;5012705;28;20607;-64
2023/08/13 11:48:53;;;;;;;1.20;0.95;;;;;;;;;;5015329;28;20038;-64
2023/08/13 11:51:23;;;;;;;1.52;0.90;;;;;;;;;;5016470;28;20185;-64
2023/08/13 11:53:49;;;;;;;4.97;1.38;;;;;;;;;;5014396;28;20057;-64
2023/08/13 11:56:16;;;;;;;0.90;0.68;;;;;;;;;;5012295;28;20061;-63
2023/08/13 11:58:42;;;;;;;0.60;0.60;;;;;;;;;;5012743;28;20046;-63
2023/08/13 12:01:11;;;;;;;2.90;1.10;;;;;;;;;;5014726;28;20081;-64
2023/08/13 12:03:38;;;;;;;1.90;1.00;;;;;;;;;;5015562;28;20045;-64
2023/08/13 12:06:07;;;;;;;1.27;1.00;;;;;;;;;;5013098;28;20048;-64
2023/08/13 12:08:34;;;;;;;2.72;1.30;;;;;;;;;;5012614;28;20034;-64
2023/08/13 12:11:00;;;;;;;1.63;1.10;;;;;;;;;;5013165;28;20041;-64
2023/08/13 12:13:28;;;;;;;1.52;1.08;;;;;;;;;;5015031;28;20045;-64
2023/08/13 12:15:54;;;;;;;0.90;0.77;;;;;;;;;;5016111;28;20522;-64
2023/08/13 12:18:20;;;;;;;3.08;0.95;;;;;;;;;;5013947;28;20518;-64
2023/08/13 12:20:46;;;;;;;0.95;0.80;;;;;;;;;;5012094;28;20049;-64
2023/08/13 12:23:12;;;;;;;1.25;1.02;;;;;;;;;;5012933;28;20594;-64
2023/08/13 12:25:38;;;;;;;3.38;1.15;;;;;;;;;;5015585;28;20045;-64
2023/08/13 12:28:04;;;;;;;3.28;1.42;;;;;;;;;;5014992;28;20041;-64
2023/08/13 12:30:30;;;;;;;1.10;0.80;;;;;;;;;;5013858;28;20045;-64
2023/08/13 12:32:56;;;;;;;5.03;1.13;;;;;;;;;;5012826;28;20045;-64
2023/08/13 12:35:22;;;;;;;1.63;0.85;;;;;;;;;;5012154;28;20052;-64
2023/08/13 12:37:49;;;;;;;2.65;1.20;;;;;;;;;;5012898;28;20107;-64
2023/08/13 12:40:16;;;;;;;0.85;0.50;;;;;;;;;;5012040;28;20483;-63
2023/08/13 12:42:42;;;;;;;1.30;0.68;;;;;;;;;;5013983;28;20077;-63
2023/08/13 12:45:08;;;;;;;2.28;0.82;;;;;;;;;;5015317;28;20073;-63
2023/08/13 12:47:35;;;;;;;1.58;1.00;;;;;;;;;;5015158;28;20053;-63
2023/08/13 12:50:01;;;;;;;1.80;1.02;;;;;;;;;;5011446;28;20038;-63
2023/08/13 12:52:27;;;;;;;1.40;0.80;;;;;;;;;;5012421;28;20121;-63
2023/08/13 12:54:53;;;;;;;1.45;0.63;;;;;;;;;;5013648;28;20064;-63
2023/08/13 12:57:20;;;;;;;1.35;0.80;;;;;;;;;;5013675;28;20748;-63
2023/08/13 12:59:46;;;;;;;0.88;0.60;;;;;;;;;;5014152;28;20068;-64
2023/08/13 13:02:12;;;;;;;0.57;0.47;;;;;;;;;;5011619;28;20049;-64
2023/08/13 13:04:39;;;;;;;0.35;0.35;;;;;;;;;;5011339;28;20086;-64
2023/08/13 13:07:05;;;;;;;0.80;0.45;;;;;;;;;;5013714;28;20042;-64
2023/08/13 13:09:31;;;;;;;1.23;0.50;;;;;;;;;;5013908;28;20041;-64
2023/08/13 13:11:57;;;;;;;1.55;0.52;;;;;;;;;;5015487;28;20076;-64
2023/08/13 13:14:23;;;;;;;1.67;0.60;;;;;;;;;;5015436;28;20077;-64
2023/08/13 13:16:49;;;;;;;2.88;0.40;;;;;;;;;;5015009;28;20068;-64
2023/08/13 13:19:18;;;;;;;1.02;0.57;;;;;;;;;;5016710;28;20423;-64
2023/08/13 13:21:44;;;;;;;1.67;0.57;;;;;;;;;;5018669;28;20045;-64
2023/08/13 13:24:10;;;;;;;0.93;0.60;;;;;;;;;;5017569;28;20192;-64
2023/08/13 13:26:36;;;;;;;1.05;0.60;;;;;;;;;;5015679;28;20649;-64
2023/08/13 13:29:03;;;;;;;1.15;0.40;;;;;;;;;;5015082;28;20088;-64
2023/08/13 13:31:29;;;;;;;0.70;0.50;;;;;;;;;;5016430;28;20072;-64
2023/08/13 13:33:55;;;;;;;0.93;0.40;;;;;;;;;;5018613;28;20069;-64
2023/08/13 13:36:21;;;;;;;0.40;0.40;;;;;;;;;;5018742;28;20095;-64
2023/08/13 13:38:48;;;;;;;1.25;0.50;;;;;;;;;;5014411;28;20515;-64
2023/08/13 13:41:14;;;;;;;2.28;0.70;;;;;;;;;;5014748;28;20127;-64
2023/08/13 13:43:40;;;;;;;0.70;0.45;;;;;;;;;;5016581;28;20073;-64
2023/08/13 13:46:07;;;;;;;1.70;0.55;;;;;;;;;;5016129;28;20512;-64
2023/08/13 13:48:33;;;;;;;1.38;0.40;;;;;;;;;;5018447;28;20037;-64
2023/08/13 13:50:59;;;;;;;1.08;0.30;;;;;;;;;;5015076;28;20057;-64
2023/08/13 13:53:25;;;;;;;0.47;0.28;;;;;;;;;;5014509;28;20041;-64
2023/08/13 13:55:51;;;;;;;2.10;0.47;;;;;;;;;;5016740;28;20484;-64
2023/08/13 13:58:17;;;;;;;0.90;0.60;;;;;;;;;;5017983;28;20120;-64
2023/08/13 14:00:43;;;;;;;0.95;0.73;;;;;;;;;;5018524;28;20045;-64
2023/08/13 14:03:09;;;;;;;1.02;0.43;;;;;;;;;;5016414;28;20585;-63
2023/08/13 14:05:35;;;;;;;0.90;0.40;;;;;;;;;;5021276;28;20511;-64
2023/08/13 14:08:01;;;;;;;1.83;0.73;;;;;;;;;;5017357;28;20053;-64
2023/08/13 14:10:27;;;;;;;0.73;0.40;;;;;;;;;;5018512;28;20407;-64
2023/08/13 14:12:53;;;;;;;0.70;0.28;;;;;;;;;;5018575;28;20041;-64
2023/08/13 14:15:19;;;;;;;0.35;0.32;;;;;;;;;;5014632;28;20052;-64
2023/08/13 14:17:45;;;;;;;1.20;0.30;;;;;;;;;;5020978;28;20041;-64
2023/08/13 14:20:12;;;;;;;0.98;0.52;;;;;;;;;;5015533;28;20103;-64
2023/08/13 14:22:38;;;;;;;1.05;0.57;;;;;;;;;;5017881;28;20037;-64
2023/08/13 14:25:05;;;;;;;1.17;0.60;;;;;;;;;;5017110;28;20033;-64
2023/08/13 14:27:31;;;;;;;0.50;0.30;;;;;;;;;;5015373;28;20149;-64
2023/08/13 14:29:57;;;;;;;1.33;0.45;;;;;;;;;;5014611;28;20125;-64
2023/08/13 14:32:23;;;;;;;1.17;0.63;;;;;;;;;;5015643;28;20568;-64
2023/08/13 14:34:52;;;;;;;0.63;0.52;;;;;;;;;;5016482;28;20044;-64
2023/08/13 14:37:18;;;;;;;1.13;0.60;;;;;;;;;;5016938;28;20511;-64
2023/08/13 14:39:44;;;;;;;1.48;0.70;;;;;;;;;;5013932;28;20085;-64